| time (UTC) | temp F | wind direction | speed knots | gust knots | rain 1hr in | rain 24hr in | rain mn in | humidity % | barometer mb |
| 20260509032004 | 57 | 164 | 0.0 | 0.0 | 0.00 | 0.00 | 0.00 | 67 | 1007.9 |
| 20260509031005 | 58 | 261 | 0.0 | 0.9 | 0.00 | 0.00 | 0.00 | 61 | 1008.0 |
| 20260509030004 | 60 | 251 | 0.9 | 1.7 | 0.00 | 0.00 | 0.00 | 48 | 1008.0 |
| 20260509025004 | 59 | 248 | 0.9 | 0.9 | 0.00 | 0.00 | 0.00 | 48 | 1008.3 |
| 20260509024004 | 60 | 248 | 0.9 | 1.7 | 0.00 | 0.00 | 0.00 | 48 | 1008.2 |
| 20260509023004 | 60 | 229 | 0.9 | 1.7 | 0.00 | 0.00 | 0.00 | 47 | 1008.2 |
| 20260509022004 | 59 | 217 | 0.9 | 1.7 | 0.00 | 0.00 | 0.00 | 48 | 1008.4 |
| 20260509015004 | 60 | 226 | 0.0 | 0.9 | 0.00 | 0.00 | 0.00 | 53 | 1008.4 |
| 20260509014004 | 61 | 227 | 0.0 | 0.9 | 0.00 | 0.00 | 0.00 | 50 | 1008.3 |
| 20260509013004 | 62 | 227 | 0.9 | 1.7 | 0.00 | 0.00 | 0.00 | 45 | 1008.3 |
| 20260509012004 | 63 | 227 | 0.9 | 1.7 | 0.00 | 0.00 | 0.00 | 40 | 1008.4 |
| 20260509011004 | 63 | 233 | 0.9 | 1.7 | 0.00 | 0.00 | 0.00 | 41 | 1008.4 |
| 20260509005005 | 63 | 260 | 0.9 | 1.7 | 0.00 | 0.00 | 0.00 | 44 | 1008.5 |
| 20260509004004 | 63 | 260 | 0.9 | 1.7 | 0.00 | 0.00 | 0.00 | 40 | 1008.5 |
| 20260509003004 | 64 | 260 | 0.9 | 1.7 | 0.00 | 0.00 | 0.00 | 46 | 1008.6 |
| 20260509002004 | 65 | 260 | 0.9 | 0.9 | 0.00 | 0.00 | 0.00 | 37 | 1008.6 |
| 20260509001004 | 66 | 261 | 0.9 | 1.7 | 0.00 | 0.00 | 0.00 | 38 | 1008.8 |
| 20260509000004 | 67 | 232 | 1.7 | 2.6 | 0.00 | 0.00 | 0.00 | 36 | 1008.8 |
| 20260508235004 | 68 | 252 | 1.7 | 2.6 | 0.00 | 0.00 | 0.00 | 32 | 1008.8 |
| 20260508234004 | 68 | 270 | 2.6 | 4.3 | 0.00 | 0.00 | 0.00 | 31 | 1008.8 |
| 20260508233004 | 69 | 242 | 2.6 | 5.2 | 0.00 | 0.00 | 0.00 | 33 | 1008.8 |
| 20260508232004 | 69 | 261 | 2.6 | 4.3 | 0.00 | 0.00 | 0.00 | 31 | 1008.9 |
| 20260508231003 | 69 | 275 | 2.6 | 5.2 | 0.00 | 0.00 | 0.00 | 31 | 1008.9 |
| 20260508230004 | 69 | 272 | 1.7 | 5.2 | 0.00 | 0.00 | 0.00 | 32 | 1008.9 |
| 20260508225004 | 70 | 244 | 2.6 | 5.2 | 0.00 | 0.00 | 0.00 | 32 | 1008.9 |
| 20260508224004 | 70 | 272 | 4.3 | 6.1 | 0.00 | 0.00 | 0.00 | 31 | 1009.2 |
| 20260508223004 | 70 | 206 | 1.7 | 5.2 | 0.00 | 0.00 | 0.00 | 34 | 1009.1 |
| 20260508221004 | 70 | 260 | 3.5 | 7.8 | 0.00 | 0.00 | 0.00 | 28 | 1009.0 |
| 20260508220004 | 70 | 308 | 2.6 | 8.7 | 0.00 | 0.00 | 0.00 | 28 | 1009.0 |
| 20260508215004 | 70 | 246 | 1.7 | 5.2 | 0.00 | 0.00 | 0.00 | 28 | 1009.0 |
| 20260508214004 | 70 | 266 | 1.7 | 7.0 | 0.00 | 0.00 | 0.00 | 27 | 1009.0 |
| 20260508212004 | 71 | 210 | 2.6 | 7.8 | 0.00 | 0.00 | 0.00 | 27 | 1009.2 |
| 20260508211003 | 71 | 258 | 5.2 | 7.0 | 0.00 | 0.00 | 0.00 | 27 | 1009.4 |
| 20260508205004 | 71 | 224 | 1.7 | 6.1 | 0.00 | 0.00 | 0.00 | 27 | 1009.6 |
| 20260508204003 | 71 | 261 | 2.6 | 7.0 | 0.00 | 0.00 | 0.00 | 27 | 1009.6 |
| 20260508203004 | 71 | 248 | 1.7 | 5.2 | 0.00 | 0.00 | 0.00 | 24 | 1009.7 |
| 20260508202003 | 71 | 241 | 1.7 | 5.2 | 0.00 | 0.00 | 0.00 | 28 | 1009.8 |
| 20260508201004 | 71 | 246 | 4.3 | 7.8 | 0.00 | 0.00 | 0.00 | 27 | 1009.9 |
| 20260508200004 | 71 | 272 | 1.7 | 6.1 | 0.00 | 0.00 | 0.00 | 30 | 1010.0 |
| 20260508194003 | 70 | 187 | 1.7 | 7.0 | 0.00 | 0.00 | 0.00 | 24 | 1010.2 |
| 20260508193004 | 70 | 255 | 3.5 | 6.1 | 0.00 | 0.00 | 0.00 | 26 | 1010.5 |
| 20260508192004 | 70 | 241 | 5.2 | 8.7 | 0.00 | 0.00 | 0.00 | 25 | 1010.8 |
| 20260508191003 | 69 | 239 | 3.5 | 8.7 | 0.00 | 0.00 | 0.00 | 26 | 1011.0 |
| 20260508190004 | 69 | 201 | 3.5 | 7.8 | 0.00 | 0.00 | 0.00 | 28 | 1011.2 |
| 20260508185003 | 69 | 185 | 3.5 | 8.7 | 0.00 | 0.00 | 0.00 | 28 | 1011.3 |
| 20260508182004 | 69 | 251 | 5.2 | 7.0 | 0.00 | 0.00 | 0.00 | 27 | 1011.7 |
| 20260508181004 | 68 | 217 | 1.7 | 5.2 | 0.00 | 0.00 | 0.00 | 33 | 1011.8 |
| 20260508180004 | 68 | 257 | 2.6 | 8.7 | 0.00 | 0.00 | 0.00 | 32 | 1012.1 |
| 20260508175003 | 68 | 209 | 2.6 | 5.2 | 0.00 | 0.00 | 0.00 | 31 | 1012.3 |
| 20260508174004 | 67 | 253 | 3.5 | 7.8 | 0.00 | 0.00 | 0.00 | 30 | 1012.5 |
| 20260508173003 | 68 | 238 | 1.7 | 4.3 | 0.00 | 0.00 | 0.00 | 31 | 1012.7 |
| 20260508172004 | 67 | 192 | 1.7 | 4.3 | 0.00 | 0.00 | 0.00 | 30 | 1012.8 |
| 20260508171004 | 67 | 248 | 1.7 | 5.2 | 0.00 | 0.00 | 0.00 | 33 | 1013.2 |
| 20260508170004 | 66 | 136 | 1.7 | 4.3 | 0.00 | 0.00 | 0.00 | 35 | 1013.3 |
| 20260508165004 | 66 | 149 | 2.6 | 5.2 | 0.00 | 0.00 | 0.00 | 35 | 1013.4 |
| 20260508164004 | 65 | 106 | 1.7 | 4.3 | 0.00 | 0.00 | 0.00 | 34 | 1013.7 |
| 20260508163003 | 64 | 144 | 1.7 | 6.1 | 0.00 | 0.00 | 0.00 | 38 | 1013.8 |
| 20260508162004 | 63 | 155 | 1.7 | 5.2 | 0.00 | 0.00 | 0.00 | 39 | 1013.9 |
| 20260508161003 | 63 | 157 | 1.7 | 4.3 | 0.00 | 0.00 | 0.00 | 37 | 1014.0 |
| 20260508160004 | 62 | 274 | 1.7 | 6.1 | 0.00 | 0.00 | 0.00 | 40 | 1014.3 |
| 20260508155004 | 62 | 259 | 3.5 | 6.1 | 0.00 | 0.00 | 0.00 | 40 | 1014.5 |
| 20260508154004 | 61 | 201 | 2.6 | 4.3 | 0.00 | 0.00 | 0.00 | 44 | 1014.5 |
| 20260508153003 | 60 | 168 | 2.6 | 5.2 | 0.00 | 0.00 | 0.00 | 47 | 1014.5 |
| 20260508152004 | 60 | 184 | 2.6 | 7.0 | 0.00 | 0.00 | 0.00 | 47 | 1014.9 |
| 20260508151005 | 59 | 253 | 1.7 | 5.2 | 0.00 | 0.00 | 0.00 | 49 | 1015.0 |
| 20260508150005 | 59 | 207 | 1.7 | 6.1 | 0.00 | 0.00 | 0.00 | 50 | 1015.0 |
| 20260508144005 | 58 | 237 | 2.6 | 7.0 | 0.00 | 0.00 | 0.00 | 53 | 1015.0 |
| 20260508143004 | 57 | 225 | 3.5 | 7.0 | 0.00 | 0.00 | 0.00 | 52 | 1015.0 |
| 20260508141005 | 56 | 150 | 1.7 | 4.3 | 0.00 | 0.00 | 0.00 | 59 | 1015.1 |
| 20260508135005 | 54 | 253 | 1.7 | 2.6 | 0.00 | 0.00 | 0.00 | 66 | 1015.3 |
| 20260508133005 | 53 | 198 | 0.9 | 1.7 | 0.00 | 0.00 | 0.00 | 70 | 1015.0 |
| 20260508132005 | 51 | 254 | 0.0 | 1.7 | 0.00 | 0.00 | 0.00 | 77 | 1014.9 |
| 20260508131005 | 50 | 242 | 0.9 | 2.6 | 0.00 | 0.00 | 0.00 | 81 | 1014.9 |
| 20260508125004 | 47 | 252 | 1.7 | 2.6 | 0.00 | 0.00 | 0.00 | 91 | 1014.9 |
| 20260508124004 | 46 | 253 | 1.7 | 2.6 | 0.00 | 0.00 | 0.00 | 96 | 1014.9 |
| 20260508122004 | 44 | 246 | 0.9 | 2.6 | 0.00 | 0.00 | 0.00 | 100 | 1014.9 |
| 20260508121005 | 42 | 258 | 1.7 | 2.6 | 0.00 | 0.00 | 0.00 | 100 | 1014.8 |
| 20260508120005 | 40 | 223 | 0.9 | 0.9 | 0.00 | 0.00 | 0.00 | 99 | 1014.7 |
| 20260508115005 | 39 | 0 | 0.0 | 0.9 | 0.00 | 0.00 | 0.00 | 99 | 1014.5 |
| 20260508114004 | 38 | 0 | 0.0 | 0.9 | 0.00 | 0.00 | 0.00 | 98 | 1014.5 |
| 20260508113005 | 37 | 0 | 0.0 | 0.0 | 0.00 | 0.00 | 0.00 | 97 | 1014.5 |
| 20260508112005 | 37 | 0 | 0.0 | 0.0 | 0.00 | 0.00 | 0.00 | 97 | 1014.5 |
| 20260508111004 | 37 | 0 | 0.0 | 0.0 | 0.00 | 0.00 | 0.00 | 97 | 1014.2 |
| 20260508110005 | 37 | 0 | 0.9 | 0.9 | 0.00 | 0.00 | 0.00 | 96 | 1014.1 |
| 20260508105004 | 37 | 0 | 0.0 | 0.9 | 0.00 | 0.00 | 0.00 | 96 | 1014.0 |
| 20260508104005 | 37 | 0 | 0.0 | 0.0 | 0.00 | 0.00 | 0.00 | 96 | 1013.9 |
| 20260508103004 | 37 | 0 | 0.0 | 0.9 | 0.00 | 0.00 | 0.00 | 96 | 1013.8 |
| 20260508102005 | 37 | 0 | 0.0 | 0.0 | 0.00 | 0.00 | 0.00 | 96 | 1013.7 |
| 20260508101005 | 37 | 0 | 0.0 | 0.9 | 0.00 | 0.00 | 0.00 | 96 | 1013.5 |
| 20260508100004 | 37 | 0 | 0.9 | 0.9 | 0.00 | 0.00 | 0.00 | 96 | 1013.4 |
| 20260508095005 | 37 | 0 | 0.0 | 0.0 | 0.00 | 0.00 | 0.00 | 96 | 1013.4 |
| 20260508094005 | 37 | 0 | 0.0 | 0.9 | 0.00 | 0.00 | 0.00 | 96 | 1013.4 |
| 20260508093005 | 37 | 0 | 0.0 | 0.9 | 0.00 | 0.00 | 0.00 | 96 | 1013.6 |
| 20260508092004 | 38 | 0 | 0.0 | 1.7 | 0.00 | 0.00 | 0.00 | 95 | 1013.6 |
| 20260508091004 | 38 | 0 | 0.0 | 0.9 | 0.00 | 0.00 | 0.00 | 96 | 1013.7 |
| 20260508090005 | 38 | 0 | 0.0 | 0.9 | 0.00 | 0.00 | 0.00 | 95 | 1013.7 |
| 20260508085004 | 39 | 0 | 0.0 | 0.9 | 0.00 | 0.00 | 0.00 | 96 | 1013.8 |
| 20260508083005 | 39 | 0 | 0.0 | 0.9 | 0.00 | 0.00 | 0.00 | 95 | 1013.9 |
| 20260508082004 | 39 | 0 | 0.0 | 0.9 | 0.00 | 0.00 | 0.00 | 95 | 1013.7 |
| 20260508081005 | 39 | 0 | 0.0 | 0.9 | 0.00 | 0.00 | 0.00 | 95 | 1013.7 |
| 20260508075004 | 40 | 0 | 0.0 | 0.9 | 0.00 | 0.00 | 0.00 | 95 | 1013.8 |
| 20260508074004 | 40 | 0 | 0.0 | 0.0 | 0.00 | 0.00 | 0.00 | 95 | 1013.7 |
| 20260508073004 | 40 | 0 | 0.0 | 0.9 | 0.00 | 0.00 | 0.00 | 95 | 1013.5 |
| 20260508072005 | 40 | 0 | 0.0 | 0.0 | 0.00 | 0.00 | 0.00 | 94 | 1013.6 |
| 20260508071005 | 40 | 0 | 0.0 | 0.9 | 0.00 | 0.00 | 0.00 | 94 | 1013.8 |
| 20260508070005 | 40 | 0 | 0.0 | 0.9 | 0.00 | 0.00 | 0.00 | 94 | 1013.8 |
| 20260508065004 | 41 | 0 | 0.9 | 0.9 | 0.00 | 0.00 | 0.00 | 94 | 1013.8 |
| 20260508064005 | 41 | 0 | 0.0 | 0.9 | 0.00 | 0.00 | 0.00 | 94 | 1013.7 |
| 20260508063004 | 41 | 0 | 0.9 | 1.7 | 0.00 | 0.00 | 0.00 | 93 | 1013.7 |
| 20260508062004 | 41 | 0 | 0.0 | 0.9 | 0.00 | 0.00 | 0.00 | 93 | 1013.8 |
| 20260508061004 | 42 | 0 | 0.0 | 0.0 | 0.00 | 0.00 | 0.00 | 93 | 1013.8 |
| 20260508055004 | 42 | 0 | 0.0 | 0.0 | 0.00 | 0.00 | 0.00 | 92 | 1013.8 |
| 20260508053004 | 42 | 0 | 0.0 | 0.0 | 0.00 | 0.00 | 0.00 | 92 | 1013.9 |
| 20260508052004 | 43 | 0 | 0.0 | 0.9 | 0.00 | 0.00 | 0.00 | 92 | 1013.9 |
| 20260508045005 | 44 | 0 | 0.0 | 0.9 | 0.00 | 0.00 | 0.00 | 91 | 1014.1 |
| 20260508044004 | 44 | 0 | 0.0 | 0.0 | 0.00 | 0.00 | 0.00 | 91 | 1014.0 |
| 20260508042004 | 44 | 0 | 0.9 | 1.7 | 0.00 | 0.00 | 0.00 | 90 | 1014.0 |
| 20260508041004 | 44 | 0 | 0.0 | 0.9 | 0.00 | 0.00 | 0.00 | 90 | 1013.8 |
| 20260508040005 | 44 | 0 | 0.0 | 0.9 | 0.00 | 0.00 | 0.00 | 89 | 1013.7 |
| 20260508035004 | 45 | 0 | 0.9 | 0.9 | 0.00 | 0.00 | 0.00 | 88 | 1013.6 |
| 20260508034004 | 45 | 0 | 0.0 | 0.9 | 0.00 | 0.00 | 0.00 | 88 | 1013.6 |
| 20260508033005 | 45 | 0 | 0.0 | 0.9 | 0.00 | 0.00 | 0.00 | 87 | 1013.5 |